Etusivu
METAR-TAF:

METAR-TAF

Lentoasemat :

Madeiran lentoasema

Funchal, Madeira, Portugali

Leveyspiiri: 32-41-52N, Pituuspiiri: 016-46-28W, korkeus merenpinnasta: 59 m

Tämänhetkinen sää

Tämä raportti tehtiin 30 minuuttia sitten, kello 18.00 UTC
Tuuli 15 kn pohjoisesta
Lämpötila 20°C
Kosteus 64%
Ilmanpaine 1019 hPa
Näkyvyys 10 km tai enemmän
Muutamia pilviä 1800 ft:n korkeudessa

METAR: LPMA 201800Z 36015KT 9999 FEW018 20/13 Q1019

Aika: 19:30 (18:30 UTC)

Sääennuste

Tämä raportti tehtiin 1 tunti ja 30 minuuttia sitten, kello 17.00 UTC
Ennuste voimassa 20. päivästä klo 18 UTC - 21. päivään klo 18 UTC
Tuuli 10 kn pohjoisesta
Näkyvyys 10 km tai enemmän
Hajanaisia pilviä 1500 ft:n korkeudessa
Ajoittain
20. päivästä klo 18 UTC - 21. päivään klo 18 UTC
Muutamia pilviä 1300 ft:n korkeudessa
Hajonneita pilviä 3000 ft:n korkeudessa

TAF: LPMA 201700Z 2018/2118 01010KT 9999 SCT015 TEMPO 2018/2118 FEW013 BKN030

Säähavainnot ja -ennusteet yli 4000 lentoasemalta (METAR- ja TAF-raportit).

Käytössä olevat sääasemat on merkitty karttaan keltaisilla ja punaisilla pisteillä.

Aseta hiiri pisteen päälle nähdäksesi sääaseman nimen.

Klikkaa sitten nähdäksesi säähavainnot ja -ennusteet.

Kartan vaihtaminen: klikkaa mustalla rastilla varustettuja vihreitä pisteitä, niin voit zoomata sisään; viivalla varustettua vihreää pistettä, niin voit zoomata ulos tai vihreitä nuolia, niin pääset viereisille kartoille.


METAR-TAF: